AFR147 SOCA-MUHA
Flight info
| Callsign | AFR147 |
|---|---|
| Flight time | N/A |
| Altitude | 38000 |
| Route | DABRA1A DABRA DCT MIKOK DCT KORTO/N0479F400 UG449 POS UL337 ARMUR L337 NEGON UL337 OSIDU DCT DUTAN DUTAN1A |
| Aircraft | B772/H-SDE2E3FGHIJ5LORVWXY/LB1D1 |
Departure
| Time | 2026-04-26 12:58 |
|---|---|
| Airport | Cayenne – Félix Eboué Airport (SOCA) |
Arrival
| Time | N/A |
|---|---|
| Airport | José Martí International Airport (MUHA) |
| Time | Latitude | Longitude | Altitude | Speed | Heading |
|---|---|---|---|---|---|
| 2026-04-26 12:35 | 4.82151 | -52.36362 | 33 ft | 0 kts | 335° |
| 2026-04-26 12:48 | 4.82140 | -52.36357 | 31 ft | 2 kts | 339° |
| 2026-04-26 12:48 | 4.82124 | -52.36351 | 33 ft | 2 kts | 342° |
| 2026-04-26 12:49 | 4.82108 | -52.36346 | 33 ft | 2 kts | 348° |
| 2026-04-26 12:49 | 4.82092 | -52.36344 | 33 ft | 2 kts | 1° |
| 2026-04-26 12:49 | 4.82075 | -52.36346 | 32 ft | 2 kts | 28° |
| 2026-04-26 12:49 | 4.82063 | -52.36357 | 30 ft | 2 kts | 60° |
| 2026-04-26 12:50 | 4.82060 | -52.36362 | 30 ft | 0 kts | 65° |
| 2026-04-26 12:52 | 4.82072 | -52.36335 | 33 ft | 7 kts | 65° |
| 2026-04-26 12:53 | 4.82091 | -52.36287 | 33 ft | 7 kts | 77° |
| 2026-04-26 12:53 | 4.82061 | -52.36250 | 33 ft | 8 kts | 154° |
| 2026-04-26 12:53 | 4.82014 | -52.36228 | 33 ft | 8 kts | 155° |
| 2026-04-26 12:53 | 4.81955 | -52.36231 | 33 ft | 12 kts | 214° |
| 2026-04-26 12:54 | 4.81902 | -52.36328 | 33 ft | 22 kts | 245° |
| 2026-04-26 12:54 | 4.81832 | -52.36482 | 33 ft | 24 kts | 245° |
| 2026-04-26 12:54 | 4.81763 | -52.36633 | 33 ft | 24 kts | 245° |
| 2026-04-26 12:54 | 4.81692 | -52.36787 | 32 ft | 24 kts | 245° |
| 2026-04-26 12:55 | 4.81622 | -52.36940 | 32 ft | 24 kts | 245° |
| 2026-04-26 12:55 | 4.81551 | -52.37094 | 32 ft | 24 kts | 245° |
| 2026-04-26 12:55 | 4.81485 | -52.37240 | 32 ft | 19 kts | 245° |
| 2026-04-26 12:55 | 4.81445 | -52.37326 | 32 ft | 6 kts | 244° |
| 2026-04-26 12:56 | 4.81440 | -52.37369 | 31 ft | 6 kts | 282° |
| 2026-04-26 12:56 | 4.81430 | -52.37406 | 31 ft | 3 kts | 210° |
| 2026-04-26 12:56 | 4.81417 | -52.37397 | 31 ft | 2 kts | 124° |
| 2026-04-26 12:56 | 4.81422 | -52.37380 | 31 ft | 0 kts | 68° |
| 2026-04-26 12:57 | 4.81424 | -52.37374 | 30 ft | 8 kts | 68° |
| 2026-04-26 12:57 | 4.81528 | -52.37146 | 32 ft | 73 kts | 65° |
| 2026-04-26 12:58 | 4.82322 | -52.35410 | 410 ft | 172 kts | 65° |
| 2026-04-26 12:58 | 4.82816 | -52.34283 | 1195 ft | 180 kts | 71° |
| 2026-04-26 12:58 | 4.83162 | -52.33103 | 2172 ft | 175 kts | 77° |
| 2026-04-26 12:58 | 4.83488 | -52.31829 | 2537 ft | 203 kts | 77° |
| 2026-04-26 12:59 | 4.83844 | -52.30368 | 2749 ft | 230 kts | 76° |
| 2026-04-26 12:59 | 4.84251 | -52.28776 | 3249 ft | 245 kts | 77° |
| 2026-04-26 12:59 | 4.84684 | -52.27084 | 3975 ft | 254 kts | 76° |
| 2026-04-26 12:59 | 4.85148 | -52.25360 | 4749 ft | 257 kts | 76° |
| 2026-04-26 13:00 | 4.85602 | -52.23606 | 5457 ft | 262 kts | 77° |
| 2026-04-26 13:00 | 4.86061 | -52.21822 | 6159 ft | 266 kts | 76° |
| 2026-04-26 13:00 | 4.86311 | -52.20011 | 6719 ft | 270 kts | 95° |
| 2026-04-26 13:00 | 4.85625 | -52.18272 | 7341 ft | 271 kts | 127° |
| 2026-04-26 13:01 | 4.84178 | -52.17041 | 7967 ft | 280 kts | 149° |
| 2026-04-26 13:01 | 4.82279 | -52.16467 | 8446 ft | 294 kts | 173° |
| 2026-04-26 13:01 | 4.80221 | -52.16582 | 9082 ft | 299 kts | 187° |
| 2026-04-26 13:01 | 4.78235 | -52.17227 | 9722 ft | 301 kts | 200° |
| 2026-04-26 13:02 | 4.76284 | -52.18087 | 10134 ft | 311 kts | 201° |
| 2026-04-26 13:02 | 4.74251 | -52.18952 | 10361 ft | 326 kts | 199° |
| 2026-04-26 13:02 | 4.72092 | -52.19770 | 10549 ft | 343 kts | 197° |
| 2026-04-26 13:02 | 4.69785 | -52.20608 | 10767 ft | 363 kts | 198° |
| 2026-04-26 13:03 | 4.67381 | -52.21506 | 11264 ft | 374 kts | 198° |
| 2026-04-26 13:03 | 4.64912 | -52.22435 | 11983 ft | 381 kts | 198° |
| 2026-04-26 13:03 | 4.62414 | -52.23372 | 12841 ft | 384 kts | 198° |
| 2026-04-26 13:03 | 4.59899 | -52.24320 | 13660 ft | 386 kts | 200° |
| 2026-04-26 13:04 | 4.57585 | -52.25720 | 14172 ft | 398 kts | 221° |
| 2026-04-26 13:04 | 4.55874 | -52.27918 | 14825 ft | 405 kts | 242° |
| 2026-04-26 13:04 | 4.54728 | -52.30494 | 15384 ft | 408 kts | 246° |
| 2026-04-26 13:04 | 4.53614 | -52.33144 | 15946 ft | 415 kts | 246° |
| 2026-04-26 13:05 | 4.52489 | -52.35829 | 16648 ft | 418 kts | 246° |
| 2026-04-26 13:05 | 4.51353 | -52.38524 | 17320 ft | 422 kts | 246° |
| 2026-04-26 13:05 | 4.50211 | -52.41209 | 17950 ft | 426 kts | 246° |
| 2026-04-26 13:05 | 4.49035 | -52.43952 | 18517 ft | 430 kts | 246° |
| 2026-04-26 13:06 | 4.47842 | -52.46720 | 19026 ft | 434 kts | 246° |
| 2026-04-26 13:06 | 4.46639 | -52.49504 | 19551 ft | 437 kts | 246° |
| 2026-04-26 13:06 | 4.45423 | -52.52315 | 20083 ft | 441 kts | 246° |
| 2026-04-26 13:06 | 4.44200 | -52.55142 | 20584 ft | 444 kts | 246° |
| 2026-04-26 13:07 | 4.42966 | -52.57993 | 21079 ft | 447 kts | 246° |
| 2026-04-26 13:07 | 4.41724 | -52.60861 | 21540 ft | 451 kts | 246° |
| 2026-04-26 13:07 | 4.40467 | -52.63765 | 22014 ft | 455 kts | 246° |
| 2026-04-26 13:07 | 4.39204 | -52.66684 | 22466 ft | 458 kts | 246° |
| 2026-04-26 13:08 | 4.37932 | -52.69621 | 22922 ft | 461 kts | 246° |
| 2026-04-26 13:08 | 4.36653 | -52.72578 | 23372 ft | 465 kts | 246° |
| 2026-04-26 13:08 | 4.35363 | -52.75557 | 23789 ft | 467 kts | 246° |
| 2026-04-26 13:08 | 4.34159 | -52.78580 | 24096 ft | 467 kts | 254° |
| 2026-04-26 13:09 | 4.33791 | -52.81830 | 24306 ft | 474 kts | 274° |
| 2026-04-26 13:09 | 4.34374 | -52.85077 | 24703 ft | 474 kts | 289° |
| 2026-04-26 13:09 | 4.35740 | -52.88063 | 25110 ft | 470 kts | 302° |
| 2026-04-26 13:09 | 4.37487 | -52.90852 | 25372 ft | 474 kts | 304° |
| 2026-04-26 13:10 | 4.39297 | -52.93626 | 25678 ft | 478 kts | 305° |
| 2026-04-26 13:10 | 4.41135 | -52.96416 | 26065 ft | 481 kts | 304° |
| 2026-04-26 13:10 | 4.42949 | -52.99192 | 26463 ft | 483 kts | 304° |
| 2026-04-26 13:10 | 4.44780 | -53.02025 | 26845 ft | 485 kts | 304° |
| 2026-04-26 13:11 | 4.46604 | -53.04879 | 27205 ft | 488 kts | 303° |
| 2026-04-26 13:11 | 4.48430 | -53.07759 | 27561 ft | 491 kts | 303° |
| 2026-04-26 13:11 | 4.50263 | -53.10662 | 27911 ft | 494 kts | 303° |
| 2026-04-26 13:11 | 4.52106 | -53.13586 | 28258 ft | 497 kts | 303° |
| 2026-04-26 13:12 | 4.53950 | -53.16515 | 28606 ft | 500 kts | 303° |
| 2026-04-26 13:12 | 4.55815 | -53.19475 | 28959 ft | 502 kts | 303° |
| 2026-04-26 13:12 | 4.57683 | -53.22438 | 29288 ft | 505 kts | 303° |
| 2026-04-26 13:12 | 4.59568 | -53.25429 | 29631 ft | 508 kts | 303° |
| 2026-04-26 13:13 | 4.61459 | -53.28428 | 29947 ft | 510 kts | 303° |
| 2026-04-26 13:13 | 4.63361 | -53.31444 | 30242 ft | 513 kts | 303° |
| 2026-04-26 13:13 | 4.65267 | -53.34467 | 30513 ft | 515 kts | 303° |
| 2026-04-26 13:13 | 4.67183 | -53.37505 | 30793 ft | 516 kts | 303° |
| 2026-04-26 13:14 | 4.69102 | -53.40550 | 31065 ft | 517 kts | 303° |
| 2026-04-26 13:14 | 4.71029 | -53.43606 | 31333 ft | 519 kts | 303° |
| 2026-04-26 13:14 | 4.72958 | -53.46668 | 31614 ft | 520 kts | 303° |
| 2026-04-26 13:14 | 4.74891 | -53.49735 | 31879 ft | 520 kts | 303° |
| 2026-04-26 13:15 | 4.76826 | -53.52806 | 32212 ft | 519 kts | 303° |
| 2026-04-26 13:15 | 4.78750 | -53.55861 | 32585 ft | 517 kts | 303° |
| 2026-04-26 13:15 | 4.80663 | -53.58899 | 32984 ft | 515 kts | 303° |
| 2026-04-26 13:15 | 4.81932 | -53.60914 | 33250 ft | 514 kts | 303° |
| 2026-04-26 13:16 | 4.84456 | -53.64922 | 33723 ft | 512 kts | 303° |
| 2026-04-26 13:16 | 4.86355 | -53.67938 | 34083 ft | 511 kts | 303° |
| 2026-04-26 13:16 | 4.88249 | -53.70945 | 34393 ft | 510 kts | 303° |
| 2026-04-26 13:16 | 4.90141 | -53.73951 | 34692 ft | 509 kts | 303° |
| 2026-04-26 13:17 | 4.93920 | -53.79955 | 35279 ft | 508 kts | 303° |
| 2026-04-26 13:17 | 4.95801 | -53.82945 | 35576 ft | 507 kts | 303° |
| 2026-04-26 13:18 | 4.99567 | -53.88930 | 36161 ft | 506 kts | 303° |
| 2026-04-26 13:18 | 5.01443 | -53.91913 | 36441 ft | 506 kts | 303° |
| 2026-04-26 13:18 | 5.05197 | -53.97882 | 36975 ft | 506 kts | 303° |
| 2026-04-26 13:19 | 5.07072 | -54.00864 | 37234 ft | 505 kts | 303° |
| 2026-04-26 13:19 | 5.08947 | -54.03847 | 37492 ft | 505 kts | 303° |
| 2026-04-26 13:19 | 5.10822 | -54.06830 | 37743 ft | 505 kts | 303° |
| 2026-04-26 13:19 | 5.12698 | -54.09814 | 37927 ft | 506 kts | 303° |
| 2026-04-26 13:20 | 5.14582 | -54.12812 | 37976 ft | 509 kts | 303° |
| 2026-04-26 13:20 | 5.18352 | -54.18813 | 38003 ft | 510 kts | 303° |
| 2026-04-26 13:21 | 5.22106 | -54.24793 | 38006 ft | 503 kts | 303° |
| 2026-04-26 13:21 | 5.25857 | -54.30722 | 38007 ft | 502 kts | 306° |
| 2026-04-26 13:22 | 5.29897 | -54.36420 | 38005 ft | 501 kts | 307° |
| 2026-04-26 13:22 | 5.33997 | -54.42021 | 38010 ft | 501 kts | 308° |
| 2026-04-26 13:23 | 5.38123 | -54.47678 | 38010 ft | 503 kts | 307° |
| 2026-04-26 13:23 | 5.42237 | -54.53364 | 38012 ft | 504 kts | 307° |
| 2026-04-26 13:24 | 5.46347 | -54.59064 | 38017 ft | 505 kts | 307° |
| 2026-04-26 13:24 | 5.50468 | -54.64780 | 38014 ft | 505 kts | 307° |
| 2026-04-26 13:25 | 5.54595 | -54.70505 | 38017 ft | 506 kts | 307° |
| 2026-04-26 13:25 | 5.58722 | -54.76231 | 38014 ft | 506 kts | 307° |
| 2026-04-26 13:26 | 5.62151 | -54.80989 | 38034 ft | 506 kts | 307° |
| 2026-04-26 13:26 | 5.66277 | -54.86715 | 38016 ft | 506 kts | 307° |
| 2026-04-26 13:27 | 5.71079 | -54.93381 | 38028 ft | 506 kts | 307° |
| 2026-04-26 13:27 | 5.74529 | -54.98173 | 38001 ft | 506 kts | 307° |
| 2026-04-26 13:28 | 5.78628 | -55.03866 | 37995 ft | 505 kts | 307° |
| 2026-04-26 13:28 | 5.82751 | -55.09594 | 37998 ft | 505 kts | 307° |
| 2026-04-26 13:29 | 5.86871 | -55.15321 | 38000 ft | 505 kts | 307° |
| 2026-04-26 13:29 | 5.90983 | -55.21037 | 37992 ft | 505 kts | 307° |
| 2026-04-26 13:30 | 5.95097 | -55.26759 | 37994 ft | 505 kts | 307° |
| 2026-04-26 13:30 | 5.99205 | -55.32473 | 38000 ft | 505 kts | 307° |
| 2026-04-26 13:31 | 6.03318 | -55.38195 | 38021 ft | 505 kts | 307° |
| 2026-04-26 13:31 | 6.07429 | -55.43917 | 38015 ft | 505 kts | 307° |
| 2026-04-26 13:32 | 6.11538 | -55.49639 | 38013 ft | 505 kts | 307° |
| 2026-04-26 13:32 | 6.15653 | -55.55369 | 38016 ft | 505 kts | 307° |
| 2026-04-26 13:33 | 6.19735 | -55.61057 | 38025 ft | 505 kts | 307° |
| 2026-04-26 13:33 | 6.23858 | -55.66802 | 38023 ft | 505 kts | 307° |
| 2026-04-26 13:34 | 6.27963 | -55.72525 | 38011 ft | 505 kts | 307° |
| 2026-04-26 13:34 | 6.32076 | -55.78259 | 38014 ft | 505 kts | 307° |
| 2026-04-26 13:35 | 6.36178 | -55.83981 | 38028 ft | 505 kts | 307° |
| 2026-04-26 13:35 | 6.40286 | -55.89713 | 38037 ft | 504 kts | 307° |
| 2026-04-26 13:36 | 6.44366 | -55.95406 | 38015 ft | 504 kts | 307° |
| 2026-04-26 13:36 | 6.48458 | -56.01121 | 38011 ft | 503 kts | 307° |
| 2026-04-26 13:37 | 6.52553 | -56.06839 | 38017 ft | 503 kts | 307° |
| 2026-04-26 13:37 | 6.56634 | -56.12541 | 38023 ft | 502 kts | 307° |
| 2026-04-26 13:38 | 6.60720 | -56.18251 | 38021 ft | 501 kts | 306° |
| 2026-04-26 13:38 | 6.64768 | -56.23910 | 38018 ft | 500 kts | 306° |
| 2026-04-26 13:39 | 6.68826 | -56.29584 | 38005 ft | 499 kts | 306° |
| 2026-04-26 13:39 | 6.72886 | -56.35264 | 38025 ft | 499 kts | 306° |
| 2026-04-26 13:40 | 6.76930 | -56.40922 | 38020 ft | 498 kts | 306° |
| 2026-04-26 13:40 | 6.80973 | -56.46582 | 38026 ft | 497 kts | 306° |
| 2026-04-26 13:41 | 6.85008 | -56.52232 | 38010 ft | 497 kts | 306° |
| 2026-04-26 13:41 | 6.89043 | -56.57883 | 38014 ft | 497 kts | 306° |
| 2026-04-26 13:42 | 6.93079 | -56.63539 | 38013 ft | 497 kts | 306° |
| 2026-04-26 13:42 | 6.97107 | -56.69184 | 38014 ft | 497 kts | 306° |
| 2026-04-26 13:43 | 7.01144 | -56.74846 | 38008 ft | 497 kts | 306° |
| 2026-04-26 13:43 | 7.05145 | -56.80457 | 38018 ft | 496 kts | 306° |
| 2026-04-26 13:44 | 7.09170 | -56.86105 | 38012 ft | 496 kts | 306° |
| 2026-04-26 13:44 | 7.13193 | -56.91750 | 38009 ft | 496 kts | 306° |
| 2026-04-26 13:45 | 7.17208 | -56.97388 | 38010 ft | 495 kts | 305° |
| 2026-04-26 13:45 | 7.21221 | -57.03024 | 38018 ft | 494 kts | 305° |
| 2026-04-26 13:46 | 7.25223 | -57.08647 | 38011 ft | 494 kts | 305° |
| 2026-04-26 13:46 | 7.29195 | -57.14230 | 38016 ft | 493 kts | 305° |
| 2026-04-26 13:47 | 7.33186 | -57.19841 | 38010 ft | 492 kts | 305° |
| 2026-04-26 13:47 | 7.37174 | -57.25450 | 38009 ft | 492 kts | 305° |
| 2026-04-26 13:48 | 7.41159 | -57.31057 | 38019 ft | 491 kts | 305° |
| 2026-04-26 13:48 | 7.45133 | -57.36651 | 38017 ft | 491 kts | 305° |
| 2026-04-26 13:49 | 7.49105 | -57.42245 | 38019 ft | 490 kts | 304° |
| 2026-04-26 13:49 | 7.53045 | -57.47794 | 38016 ft | 490 kts | 304° |
| 2026-04-26 13:50 | 7.57017 | -57.53391 | 38003 ft | 490 kts | 304° |
| 2026-04-26 13:50 | 7.60975 | -57.58970 | 38015 ft | 489 kts | 304° |
| 2026-04-26 13:51 | 7.64936 | -57.64554 | 38010 ft | 489 kts | 304° |
| 2026-04-26 13:51 | 7.68897 | -57.70141 | 38014 ft | 490 kts | 304° |
| 2026-04-26 13:52 | 7.72876 | -57.75719 | 38000 ft | 490 kts | 304° |
| 2026-04-26 13:52 | 7.76831 | -57.81303 | 38020 ft | 490 kts | 304° |
| 2026-04-26 13:53 | 7.80755 | -57.86871 | 38019 ft | 490 kts | 304° |
| 2026-04-26 13:53 | 7.84706 | -57.92464 | 38015 ft | 490 kts | 304° |
| 2026-04-26 13:54 | 7.88674 | -57.98072 | 38011 ft | 490 kts | 304° |
| 2026-04-26 13:54 | 7.92635 | -58.03671 | 38016 ft | 490 kts | 304° |
| 2026-04-26 13:55 | 7.97887 | -58.11098 | 38013 ft | 490 kts | 304° |
| 2026-04-26 13:56 | 8.04502 | -58.20458 | 38017 ft | 492 kts | 304° |
| 2026-04-26 13:56 | 8.08482 | -58.26095 | 38018 ft | 492 kts | 304° |
| 2026-04-26 13:57 | 8.12437 | -58.31698 | 38021 ft | 493 kts | 304° |
| 2026-04-26 13:57 | 8.16426 | -58.37350 | 38015 ft | 494 kts | 304° |
| 2026-04-26 13:58 | 8.20420 | -58.43012 | 38015 ft | 495 kts | 304° |
| 2026-04-26 13:58 | 8.24419 | -58.48683 | 38015 ft | 496 kts | 304° |
| 2026-04-26 13:59 | 8.28423 | -58.54364 | 38016 ft | 496 kts | 304° |
| 2026-04-26 13:59 | 8.32430 | -58.60050 | 38023 ft | 497 kts | 304° |
| 2026-04-26 14:00 | 8.40412 | -58.71386 | 38016 ft | 497 kts | 304° |
| 2026-04-26 14:01 | 8.44418 | -58.77078 | 38020 ft | 497 kts | 304° |
| 2026-04-26 14:01 | 8.48424 | -58.82773 | 38013 ft | 497 kts | 304° |
| 2026-04-26 14:02 | 8.52421 | -58.88459 | 38013 ft | 496 kts | 304° |
| 2026-04-26 14:02 | 8.56422 | -58.94152 | 38015 ft | 496 kts | 304° |
| 2026-04-26 14:03 | 8.60398 | -58.99810 | 38028 ft | 496 kts | 304° |
| 2026-04-26 14:03 | 8.64414 | -59.05530 | 38023 ft | 496 kts | 304° |
| 2026-04-26 14:04 | 8.68380 | -59.11180 | 38015 ft | 496 kts | 304° |
| 2026-04-26 14:04 | 8.72375 | -59.16875 | 38016 ft | 496 kts | 304° |
| 2026-04-26 14:05 | 8.76370 | -59.22571 | 38022 ft | 496 kts | 304° |
| 2026-04-26 14:05 | 8.80358 | -59.28260 | 38016 ft | 496 kts | 304° |
| 2026-04-26 14:06 | 8.84348 | -59.33955 | 38019 ft | 496 kts | 304° |
| 2026-04-26 14:06 | 8.88345 | -59.39662 | 38023 ft | 497 kts | 304° |